Flight Track Log - Related Links

Times and Time Zones

All times are in EST time to prevent confusion due to time zone crossing. See the IRO8578 flight status page for this flight to view local times or setup timezone preferences in your user account.

Time Position Orientation Groundspeed Altitude Reporting Facility
EST Latitude Longitude Course Direction KTS MPH feet Rate Location/Type
Tue 09:11:13 AM 42.9333 -87.9333 270° West 107 123 1,300  Level KMKE
Tue 09:12:43 AM 42.9333 -87.9833 270° West 93 107 2,800 1,040 Climbing KMKE
Tue 09:13:43 AM 42.9500 -87.9833 360° North 110 127 3,900 947 Climbing KMKE
Tue 09:14:37 AM 42.9833 -88.0000 340° North 99 114 4,600 684 Climbing KMKE
Tue 09:15:37 AM 43.0000 -88.0167 324° Northwest 108 124 5,200 700 Climbing KMKE
Tue 09:16:37 AM 43.0333 -88.0167 360° North 125 144 6,000 789 Climbing KMKE
Tue 09:17:31 AM 43.0667 -88.0167 360° North 125 144 6,700 674 Climbing KMKE
Tue 09:18:06 AM 43.0864 -88.0078 18° North 128 147 7,000 124 Climbing Chicago Center
Tue 09:19:08 AM 43.1231 -88.0033 North 127 146 6,900 -48 Descending Chicago Center
Tue 09:20:10 AM 43.1667 -87.9969 North 137 158 6,900 48 Level Chicago Center
Tue 09:21:12 AM 43.2192 -87.9881 North 147 169 7,000 48 Climbing Chicago Center
Tue 09:22:14 AM 43.2636 -87.9808 North 153 176 7,000  Level Chicago Center
Tue 09:23:16 AM 43.3089 -87.9717 North 158 182 7,000  Level Chicago Center
Tue 09:24:18 AM 43.3558 -87.9642 North 162 186 7,000  Level Chicago Center
Tue 09:25:20 AM 43.4019 -87.9550 North 165 190 7,000  Level Chicago Center
Tue 09:26:22 AM 43.4464 -87.9472 North 164 189 7,000  Level Chicago Center
Tue 09:27:24 AM 43.5017 -87.9378 North 165 190 7,000  Level Chicago Center
Tue 09:28:26 AM 43.5464 -87.9294 North 164 189 7,000  Level Chicago Center
Tue 09:29:28 AM 43.5908 -87.9200 North 163 188 7,000  Level Chicago Center
Tue 09:30:30 AM 43.6344 -87.9122 North 162 186 7,000 -48 Level Chicago Center
Tue 09:31:32 AM 43.6786 -87.9061 North 160 184 6,900 -48 Descending Chicago Center
Tue 09:32:34 AM 43.7242 -87.8989 North 162 186 6,900  Level Chicago Center
Tue 09:33:36 AM 43.7769 -87.8881 North 162 186 6,900  Level Chicago Center
Tue 09:34:37 AM 43.8208 -87.8808 North 161 185 6,900  Level Chicago Center
Tue 09:35:39 AM 43.8639 -87.8717 North 159 183 6,900  Level Chicago Center
Tue 09:36:41 AM 43.9081 -87.8625 North 160 184 6,900  Level Chicago Center
Tue 09:37:43 AM 43.9522 -87.8558 North 159 183 6,900  Level Chicago Center
Tue 09:38:45 AM 43.9964 -87.8481 North 160 184 6,900  Level Chicago Center
Tue 09:39:47 AM 44.0478 -87.8392 North 158 182 6,900  Level Chicago Center
Tue 09:40:49 AM 44.0906 -87.8308 North 156 180 6,900  Level Chicago Center
Tue 09:41:51 AM 44.1367 -87.8208 North 159 183 6,900  Level Minneapolis Center
Tue 09:42:53 AM 44.1806 -87.8128 North 160 184 6,900  Level Minneapolis Center
Tue 09:43:54 AM 44.2236 -87.8044 North 157 181 6,900  Level Minneapolis Center
Tue 09:44:56 AM 44.2675 -87.7972 North 159 183 6,900  Level Minneapolis Center
Tue 09:45:58 AM 44.3108 -87.7892 North 158 182 6,900  Level Minneapolis Center
Tue 09:47:00 AM 44.3556 -87.7819 North 160 184 6,900  Level Minneapolis Center
Tue 09:48:01 AM 44.3983 -87.7731 North 158 182 6,900  Level Minneapolis Center
Tue 09:49:03 AM 44.4506 -87.7631 North 157 181 6,900  Level Minneapolis Center
Tue 09:50:05 AM 44.4911 -87.7553 North 156 180 6,900  Level Minneapolis Center
Tue 09:51:07 AM 44.5356 -87.7478 North 158 182 6,900  Level Minneapolis Center
Tue 09:52:09 AM 44.5800 -87.7394 North 161 185 6,900  Level Minneapolis Center
Tue 09:53:10 AM 44.6236 -87.7300 North 159 183 6,900  Level Minneapolis Center
Tue 09:54:12 AM 44.6781 -87.7200 North 162 186 6,900  Level Minneapolis Center
Tue 09:55:14 AM 44.7217 -87.7111 North 159 183 6,900  Level Minneapolis Center
Tue 09:56:16 AM 44.7661 -87.7036 North 161 185 6,900  Level Minneapolis Center
Tue 09:57:17 AM 44.8103 -87.6961 North 159 183 6,900  Level Minneapolis Center
Tue 09:58:19 AM 44.8542 -87.6867 North 160 184 6,900  Level Minneapolis Center
Tue 09:59:21 AM 44.8992 -87.6789 North 161 185 6,900  Level Minneapolis Center
Tue 10:00:23 AM 44.9431 -87.6711 North 160 184 6,900  Level Minneapolis Center
Tue 10:01:24 AM 44.9964 -87.6608 North 160 184 6,900  Level Minneapolis Center
Tue 10:02:26 AM 45.0406 -87.6522 North 160 184 6,900  Level Minneapolis Center
Tue 10:03:28 AM 45.0864 -87.6433 North 164 189 6,900  Level Minneapolis Center
Tue 10:04:30 AM 45.1314 -87.6339 North 164 189 6,900  Level Minneapolis Center
Tue 10:05:31 AM 45.1758 -87.6261 North 162 186 6,900  Level Minneapolis Center
Tue 10:06:33 AM 45.2214 -87.6186 North 163 188 6,900 -49 Level Minneapolis Center
Tue 10:07:34 AM 45.2669 -87.6094 North 165 190 6,800 -49 Descending Minneapolis Center
Tue 10:08:36 AM 45.3128 -87.5989 North 167 192 6,800  Level Minneapolis Center
Tue 10:09:37 AM 45.3661 -87.5892 North 162 186 6,800  Level Minneapolis Center
Tue 10:10:39 AM 45.4100 -87.5806 North 160 184 6,800  Level Minneapolis Center
Tue 10:11:41 AM 45.4544 -87.5706 North 163 188 6,800  Level Minneapolis Center
Tue 10:12:42 AM 45.4983 -87.5636 North 160 184 6,800 49 Level Minneapolis Center
Tue 10:13:44 AM 45.5428 -87.5700 354° North 155 178 6,900 49 Climbing Minneapolis Center
Tue 10:14:45 AM 45.5894 -87.5703 360° North 153 176 6,900  Level Minneapolis Center
Tue 10:15:47 AM 45.6347 -87.5581 11° North 162 186 6,900  Level Minneapolis Center
Tue 10:16:48 AM 45.6806 -87.5461 10° North 162 186 6,900  Level Minneapolis Center
Tue 10:17:50 AM 45.7261 -87.5353 North 164 189 6,900  Level Minneapolis Center
Tue 10:18:51 AM 45.7719 -87.5275 North 163 188 6,900  Level Minneapolis Center
Tue 10:19:53 AM 45.8192 -87.5161 10° North 167 192 6,900  Level Minneapolis Center
Tue 10:20:55 AM 45.8658 -87.5044 10° North 169 194 6,900  Level Minneapolis Center
Tue 10:21:56 AM 45.9122 -87.4950 North 167 192 6,900  Level Minneapolis Center
Tue 10:22:58 AM 45.9594 -87.4844 North 168 193 6,900  Level Minneapolis Center
Tue 10:23:59 AM 46.0061 -87.4744 North 167 192 6,900  Level Minneapolis Center
Tue 10:25:01 AM 46.0536 -87.4642 North 170 196 6,900 -98 Level Minneapolis Center
Tue 10:26:02 AM 46.0983 -87.4539 North 162 186 6,700 -780 Descending Minneapolis Center
Tue 10:27:04 AM 46.1447 -87.4428 North 154 177 5,300 -1,065 Descending Minneapolis Center
Tue 10:28:06 AM 46.1883 -87.4328 North 155 178 4,500 -878 Descending Minneapolis Center
Tue 10:29:07 AM 46.2286 -87.4233 North 146 168 3,500 -927 Descending Minneapolis Center
Tue 10:30:09 AM 46.2683 -87.4144 North 143 165 2,600 -823 Descending Minneapolis Center
Tue 10:31:11 AM 46.3094 -87.4056 North 146 168 1,800 -774 Descending Minneapolis Center
Tue 10:33:00 AM 46.3500 -87.3833 North  Level FlightAware Approximate

Login

Don't have an account? Register now (free) for customized features, flight alerts, and more!